createdAt,value
2022-09-07T00:01:11.997Z,98147.75
2022-09-07T00:03:39.998Z,98145.66
2022-09-07T00:06:10.374Z,98147.82
2022-09-07T00:08:40.511Z,98151.54
2022-09-07T00:11:13.289Z,98154.10
2022-09-07T00:13:42.949Z,98146.73
2022-09-07T00:16:15.626Z,98147.32
2022-09-07T00:18:45.989Z,98144.60
2022-09-07T00:21:17.238Z,98143.50
2022-09-07T00:23:46.330Z,98142.80
2022-09-07T00:26:20.863Z,98142.34
2022-09-07T00:28:50.022Z,98142.02
2022-09-07T00:31:21.022Z,98144.04
2022-09-07T00:33:50.749Z,98145.50
2022-09-07T00:36:20.208Z,98145.13
2022-09-07T00:38:48.602Z,98143.14
2022-09-07T00:41:19.260Z,98143.63
2022-09-07T00:43:52.815Z,98143.86
2022-09-07T00:46:29.708Z,98142.46
2022-09-07T00:49:12.698Z,98142.09
2022-09-07T00:51:57.891Z,98142.71
2022-09-07T00:54:36.099Z,98142.74
2022-09-07T00:57:05.158Z,98146.70
2022-09-07T00:59:39.511Z,98141.19
2022-09-07T01:02:08.533Z,98140.95
2022-09-07T01:04:37.600Z,98138.34
2022-09-07T01:07:06.386Z,98137.98
2022-09-07T01:09:36.343Z,98134.78
2022-09-07T01:12:04.886Z,98131.11
2022-09-07T01:14:39.350Z,98128.83
2022-09-07T01:17:17.420Z,98128.14
2022-09-07T01:20:23.689Z,98125.60
2022-09-07T01:23:10.393Z,98121.73
2022-09-07T01:25:47.068Z,98127.02
2022-09-07T01:28:34.695Z,98131.65
2022-09-07T01:31:18.988Z,98136.02
2022-09-07T01:33:49.671Z,98137.81
2022-09-07T01:36:42.533Z,98129.64
2022-09-07T01:39:11.016Z,98127.64
2022-09-07T01:41:51.476Z,98126.52
2022-09-07T01:44:41.810Z,98121.97
2022-09-07T01:47:16.283Z,98113.09
2022-09-07T01:49:59.754Z,98106.77
2022-09-07T01:52:41.321Z,98103.31
2022-09-07T01:55:25.052Z,98102.52
2022-09-07T01:58:00.499Z,98102.13
2022-09-07T02:00:29.889Z,98106.45
2022-09-07T02:03:12.175Z,98109.23
2022-09-07T02:05:44.173Z,98105.01
2022-09-07T02:08:24.652Z,98097.48
2022-09-07T02:11:03.666Z,98096.77
2022-09-07T02:13:46.525Z,98096.98
2022-09-07T02:16:19.914Z,98097.58
2022-09-07T02:18:53.788Z,98092.62
2022-09-07T02:21:26.487Z,98090.44
2022-09-07T02:24:01.426Z,98091.41
2022-09-07T02:26:30.108Z,98089.45
2022-09-07T02:28:58.773Z,98088.41
2022-09-07T02:31:27.096Z,98088.14
2022-09-07T02:33:55.748Z,98085.36
2022-09-07T02:36:28.577Z,98081.01
2022-09-07T02:38:56.790Z,98069.20
2022-09-07T02:41:35.208Z,98065.06
2022-09-07T02:44:09.138Z,98061.81
2022-09-07T02:47:04.873Z,98058.89
2022-09-07T02:49:49.186Z,98061.44
2022-09-07T02:53:07.945Z,98058.23
2022-09-07T02:55:56.528Z,98059.38
2022-09-07T02:59:07.989Z,98069.73
2022-09-07T03:02:10.499Z,98083.55
2022-09-07T03:04:48.573Z,98091.40
2022-09-07T03:07:20.885Z,98088.63
2022-09-07T03:09:53.375Z,98086.33
2022-09-07T03:12:22.010Z,98086.88
2022-09-07T03:14:50.383Z,98086.62
2022-09-07T03:17:18.669Z,98090.42
2022-09-07T03:19:46.834Z,98087.11
2022-09-07T03:22:15.116Z,98082.64
2022-09-07T03:24:43.799Z,98082.43
2022-09-07T03:27:12.187Z,98075.42
2022-09-07T03:29:42.175Z,98073.23
2022-09-07T03:32:10.481Z,98078.00
2022-09-07T03:34:38.650Z,98081.17
2022-09-07T03:37:06.641Z,98087.35
2022-09-07T03:39:36.709Z,98090.59
2022-09-07T03:42:05.114Z,98093.02
2022-09-07T03:44:33.298Z,98094.55
2022-09-07T03:47:01.569Z,98091.71
2022-09-07T03:49:29.840Z,98086.72
2022-09-07T03:51:58.120Z,98086.88
2022-09-07T03:54:26.296Z,98086.01
2022-09-07T03:56:54.576Z,98082.39
2022-09-07T03:59:22.742Z,98085.19
2022-09-07T04:01:51.087Z,98088.88
2022-09-07T04:04:19.505Z,98091.00
2022-09-07T04:06:47.781Z,98095.02
2022-09-07T04:09:16.083Z,98102.55
2022-09-07T04:11:44.336Z,98110.34
2022-09-07T04:14:13.124Z,98115.05
2022-09-07T04:16:41.993Z,98112.73
2022-09-07T04:19:10.184Z,98105.25
2022-09-07T04:21:38.461Z,98105.30
2022-09-07T04:24:07.148Z,98105.64
2022-09-07T04:26:37.258Z,98107.88
2022-09-07T04:29:07.018Z,98110.55
2022-09-07T04:31:35.775Z,98116.09
2022-09-07T04:34:05.160Z,98114.80
2022-09-07T04:36:33.775Z,98121.02
2022-09-07T04:39:05.523Z,98117.46
2022-09-07T04:41:34.504Z,98114.90
2022-09-07T04:44:04.527Z,98111.30
2022-09-07T04:46:37.042Z,98107.69
2022-09-07T04:49:08.738Z,98109.94
2022-09-07T04:51:38.362Z,98111.26
2022-09-07T04:54:07.256Z,98109.42
2022-09-07T04:56:35.631Z,98105.06
2022-09-07T04:59:04.839Z,98103.41
2022-09-07T05:01:33.371Z,98106.48
2022-09-07T05:04:02.853Z,98107.36
2022-09-07T05:06:31.101Z,98109.80
2022-09-07T05:09:00.173Z,98109.91
2022-09-07T05:11:29.939Z,98107.91
2022-09-07T05:14:00.361Z,98104.09
2022-09-07T05:16:29.667Z,98104.93
2022-09-07T05:19:01.406Z,98107.70
2022-09-07T05:21:32.474Z,98111.01
2022-09-07T05:24:01.445Z,98115.92
2022-09-07T05:26:33.190Z,98113.02
2022-09-07T05:31:52.464Z,98101.86
2022-09-07T05:36:56.808Z,98105.95
2022-09-07T05:39:25.649Z,98114.58
2022-09-07T05:41:54.189Z,98118.45
2022-09-07T05:47:11.928Z,98122.73
2022-09-07T05:49:40.447Z,98124.25
2022-09-07T05:52:09.196Z,98119.67
2022-09-07T05:54:37.372Z,98117.35
2022-09-07T05:57:07.470Z,98117.25
2022-09-07T05:59:35.764Z,98118.22
2022-09-07T06:02:04.615Z,98120.79
2022-09-07T06:04:33.143Z,98126.88
2022-09-07T06:12:37.906Z,98140.67
2022-09-07T06:15:06.792Z,98135.42
2022-09-07T06:17:34.870Z,98130.58
2022-09-07T06:20:04.808Z,98131.14
2022-09-07T06:22:36.741Z,98137.02
2022-09-07T06:25:06.047Z,98142.98
2022-09-07T06:27:34.527Z,98141.81
2022-09-07T06:30:03.113Z,98146.05
2022-09-07T06:32:46.559Z,98153.05
2022-09-07T06:35:16.160Z,98155.59
2022-09-07T06:37:44.938Z,98157.21
2022-09-07T06:40:13.488Z,98157.89
2022-09-07T06:42:41.904Z,98164.70
2022-09-07T06:45:11.740Z,98166.79
2022-09-07T06:47:41.138Z,98168.37
2022-09-07T06:50:10.114Z,98172.52
2022-09-07T06:55:28.274Z,98183.86
2022-09-07T06:57:56.617Z,98185.46
2022-09-07T07:00:25.345Z,98191.40
2022-09-07T07:02:53.815Z,98200.91
2022-09-07T07:05:22.199Z,98205.91
2022-09-07T07:07:50.288Z,98210.20
2022-09-07T07:10:23.637Z,98213.01
2022-09-07T07:12:57.832Z,98211.20
2022-09-07T07:15:28.846Z,98208.56
2022-09-07T07:18:02.528Z,98205.27
2022-09-07T07:20:40.182Z,98200.96
2022-09-07T07:23:08.807Z,98202.92
2022-09-07T07:25:37.493Z,98204.70
2022-09-07T07:30:58.876Z,98208.48
2022-09-07T07:33:32.341Z,98205.79
2022-09-07T07:36:14.958Z,98205.60
2022-09-07T07:39:01.486Z,98207.35
2022-09-07T07:44:20.852Z,98205.38
2022-09-07T07:46:50.594Z,98209.36
2022-09-07T07:49:18.921Z,98211.95
2022-09-07T07:54:37.075Z,98220.69
2022-09-07T07:57:06.485Z,98220.98
2022-09-07T07:59:35.486Z,98222.41
2022-09-07T08:02:05.563Z,98222.94
2022-09-07T08:04:35.306Z,98217.65
2022-09-07T08:07:09.604Z,98213.85
2022-09-07T08:09:44.760Z,98210.30
2022-09-07T08:12:16.767Z,98206.52
2022-09-07T08:14:45.327Z,98199.46
2022-09-07T08:17:15.833Z,98199.56
2022-09-07T08:19:44.418Z,98193.83
2022-09-07T08:22:13.413Z,98191.69
2022-09-07T08:24:41.417Z,98193.69
2022-09-07T08:27:09.347Z,98190.54
2022-09-07T08:29:37.522Z,98185.11
2022-09-07T08:32:06.861Z,98183.63
2022-09-07T08:34:37.753Z,98183.23
2022-09-07T08:37:06.038Z,98182.70
2022-09-07T08:39:34.167Z,98186.04
2022-09-07T08:42:42.433Z,98190.79
2022-09-07T08:45:21.455Z,98190.67
2022-09-07T08:47:51.561Z,98187.12
2022-09-07T08:50:33.791Z,98183.02
2022-09-07T08:53:15.092Z,98181.44
2022-09-07T08:55:52.449Z,98185.19
2022-09-07T08:58:49.036Z,98193.73
2022-09-07T09:01:34.114Z,98196.61
2022-09-07T09:06:11.038Z,98192.37
2022-09-07T09:07:29.398Z,98192.77
2022-09-07T09:10:19.480Z,98184.75
2022-09-07T09:13:06.603Z,98181.47
2022-09-07T09:16:18.973Z,98176.95
2022-09-07T09:18:46.888Z,98175.91
2022-09-07T09:21:16.819Z,98175.41
2022-09-07T09:23:48.855Z,98180.17
2022-09-07T09:26:23.791Z,98183.46
2022-09-07T09:28:52.070Z,98178.40
2022-09-07T09:31:28.049Z,98181.50
2022-09-07T09:34:09.816Z,98181.91
2022-09-07T09:36:57.141Z,98182.98
2022-09-07T09:39:24.924Z,98184.17
2022-09-07T09:41:55.640Z,98184.13
2022-09-07T09:44:27.804Z,98185.71
2022-09-07T09:49:45.965Z,98191.93
2022-09-07T09:52:43.394Z,98189.75
2022-09-07T09:55:30.479Z,98187.86
2022-09-07T10:03:59.367Z,98182.32
2022-09-07T10:06:31.142Z,98183.70
2022-09-07T10:09:02.300Z,98184.00
2022-09-07T10:14:47.403Z,98184.68
2022-09-07T10:17:51.477Z,98189.56
2022-09-07T10:20:20.481Z,98181.84
2022-09-07T10:22:54.116Z,98178.86
2022-09-07T10:25:39.797Z,98176.95
2022-09-07T10:28:11.527Z,98169.64
2022-09-07T10:31:00.010Z,98159.42
2022-09-07T10:36:52.957Z,98153.52
2022-09-07T10:39:37.237Z,98155.23
2022-09-07T10:42:09.319Z,98162.02
2022-09-07T10:44:58.638Z,98164.52
2022-09-07T10:48:01.420Z,98162.91
2022-09-07T10:50:48.031Z,98163.45
2022-09-07T10:53:41.245Z,98160.44
2022-09-07T10:56:10.076Z,98156.30
2022-09-07T10:59:05.299Z,98155.77
2022-09-07T11:01:54.897Z,98156.86
2022-09-07T11:04:32.048Z,98156.08
2022-09-07T11:07:15.731Z,98154.94
2022-09-07T11:09:43.856Z,98155.23
2022-09-07T11:12:28.227Z,98155.93
2022-09-07T11:15:14.304Z,98149.61
2022-09-07T11:17:52.540Z,98151.44
2022-09-07T11:20:32.669Z,98147.46
2022-09-07T11:23:11.291Z,98144.43
2022-09-07T11:25:52.153Z,98144.34
2022-09-07T11:28:28.510Z,98138.44
2022-09-07T11:31:01.004Z,98134.52
2022-09-07T11:34:23.793Z,98133.10
2022-09-07T11:36:44.498Z,98129.45
2022-09-07T11:39:23.688Z,98130.57
2022-09-07T11:45:15.128Z,98125.95
2022-09-07T11:47:49.141Z,98128.38
2022-09-07T11:50:21.254Z,98126.77
2022-09-07T11:52:57.572Z,98128.91
2022-09-07T11:55:29.841Z,98124.48
2022-09-07T11:58:19.723Z,98122.49
2022-09-07T12:00:58.759Z,98115.91
2022-09-07T12:03:33.208Z,98113.94
2022-09-07T12:06:33.404Z,98114.73
2022-09-07T12:09:16.631Z,98113.39
2022-09-07T12:12:12.453Z,98109.12
2022-09-07T12:15:03.577Z,98106.70
2022-09-07T12:18:07.584Z,98104.38
2022-09-07T12:20:44.864Z,98099.38
2022-09-07T12:23:15.596Z,98093.47
2022-09-07T12:25:46.028Z,98092.96
2022-09-07T12:28:37.141Z,98092.57
2022-09-07T12:31:11.400Z,98092.63
2022-09-07T12:33:40.678Z,98090.14
2022-09-07T12:36:27.369Z,98086.80
2022-09-07T12:38:58.102Z,98083.42
2022-09-07T12:41:41.596Z,98085.17
2022-09-07T12:44:16.856Z,98087.08
2022-09-07T12:46:48.415Z,98088.03
2022-09-07T12:49:38.307Z,98089.47
2022-09-07T12:52:24.243Z,98091.17
2022-09-07T12:55:26.651Z,98094.80
2022-09-07T12:58:18.399Z,98091.08
2022-09-07T13:01:23.915Z,98089.31
2022-09-07T13:04:23.091Z,98092.58
2022-09-07T13:07:26.673Z,98085.48
2022-09-07T13:10:00.255Z,98084.46
2022-09-07T13:15:32.305Z,98073.25
2022-09-07T13:18:00.989Z,98072.27
2022-09-07T13:20:30.431Z,98069.16
2022-09-07T13:23:26.053Z,98065.96
2022-09-07T13:25:56.202Z,98065.29
2022-09-07T13:28:47.997Z,98057.43
2022-09-07T13:31:34.562Z,98052.05
2022-09-07T13:34:34.226Z,98049.46
2022-09-07T13:37:04.923Z,98047.88
2022-09-07T13:39:44.691Z,98046.04
2022-09-07T13:42:38.166Z,98043.64
2022-09-07T13:45:08.132Z,98041.73
2022-09-07T13:47:59.230Z,98042.09
2022-09-07T13:50:45.788Z,98043.98
2022-09-07T13:53:22.783Z,98041.52
2022-09-07T13:55:50.641Z,98042.65
2022-09-07T13:58:27.626Z,98043.83
2022-09-07T14:01:02.819Z,98044.66
2022-09-07T14:03:46.502Z,98041.86
2022-09-07T14:06:20.515Z,98038.21
2022-09-07T14:08:57.112Z,98038.56
2022-09-07T14:11:27.097Z,98041.20
2022-09-07T14:14:13.861Z,98042.25
2022-09-07T14:16:54.490Z,98044.60
2022-09-07T14:19:35.911Z,98042.88
2022-09-07T14:22:17.159Z,98040.16
2022-09-07T14:24:53.895Z,98039.88
2022-09-07T14:27:36.816Z,98040.85
2022-09-07T14:30:29.282Z,98046.67
2022-09-07T14:33:13.570Z,98044.91
2022-09-07T14:35:42.116Z,98040.74
2022-09-07T14:41:19.015Z,98031.60
2022-09-07T14:43:55.706Z,98034.08
2022-09-07T14:46:29.660Z,98031.64
2022-09-07T14:49:03.204Z,98031.45
2022-09-07T14:51:37.218Z,98031.68
2022-09-07T14:54:07.951Z,98031.56
2022-09-07T14:56:41.852Z,98028.15
2022-09-07T14:59:40.820Z,98026.91
2022-09-07T15:02:18.084Z,98024.95
2022-09-07T15:04:49.070Z,98023.27
2022-09-07T15:07:30.785Z,98026.99
2022-09-07T15:10:33.255Z,98027.06
2022-09-07T15:13:02.850Z,98025.70
2022-09-07T15:15:34.340Z,98028.14
2022-09-07T15:18:08.701Z,98026.92
2022-09-07T15:20:44.105Z,98024.85
2022-09-07T15:23:15.037Z,98025.23
2022-09-07T15:25:49.888Z,98021.45
2022-09-07T15:34:12.417Z,98011.92
2022-09-07T15:36:43.402Z,98005.05
2022-09-07T15:39:23.382Z,98001.52
2022-09-07T15:41:51.613Z,98001.83
2022-09-07T15:44:24.906Z,98003.02
2022-09-07T15:49:47.676Z,98006.45
2022-09-07T15:52:17.767Z,98008.70
2022-09-07T15:54:45.905Z,98006.71
2022-09-07T16:00:03.174Z,97998.90
2022-09-07T16:05:31.132Z,97992.67
2022-09-07T16:11:05.858Z,97988.15
2022-09-07T16:13:35.227Z,97991.33
2022-09-07T16:16:06.261Z,97993.13
2022-09-07T16:18:35.610Z,97993.60
2022-09-07T16:21:11.759Z,97997.58
2022-09-07T16:23:43.782Z,97996.82
2022-09-07T16:26:13.099Z,97995.38
2022-09-07T16:28:43.875Z,97994.77
2022-09-07T16:31:26.375Z,97992.56
2022-09-07T16:33:55.189Z,97994.19
2022-09-07T16:36:23.916Z,97993.83
2022-09-07T16:39:00.349Z,97991.22
2022-09-07T16:41:34.742Z,97987.98
2022-09-07T16:44:03.178Z,97987.59
2022-09-07T16:46:31.859Z,97984.42
2022-09-07T16:48:59.932Z,97983.68
2022-09-07T16:51:28.724Z,97982.38
2022-09-07T16:53:59.025Z,97983.45
2022-09-07T16:56:29.835Z,97980.00
2022-09-07T16:59:00.824Z,97976.21
2022-09-07T17:01:32.472Z,97979.67
2022-09-07T17:04:04.490Z,97984.73
2022-09-07T17:06:36.409Z,97989.03
2022-09-07T17:09:04.574Z,97988.14
2022-09-07T17:11:35.410Z,97990.32
2022-09-07T17:14:06.475Z,97995.04
2022-09-07T17:16:37.410Z,97995.30
2022-09-07T17:21:57.728Z,98004.45
2022-09-07T17:24:25.878Z,98004.21
2022-09-07T17:26:53.948Z,98007.66
2022-09-07T17:29:22.145Z,98005.77
2022-09-07T17:34:38.643Z,98005.40
2022-09-07T17:37:06.919Z,98007.42
2022-09-07T17:39:35.556Z,98009.88
2022-09-07T17:42:03.991Z,98008.67
2022-09-07T17:44:37.661Z,98011.34
2022-09-07T17:47:06.375Z,98014.50
2022-09-07T17:49:34.549Z,98021.63
2022-09-07T17:52:02.930Z,98022.54
2022-09-07T17:54:32.071Z,98023.50
2022-09-07T17:57:00.504Z,98022.33
2022-09-07T18:02:16.718Z,98027.88
2022-09-07T18:04:45.066Z,98034.31
2022-09-07T18:07:13.172Z,98039.19
2022-09-07T18:09:41.153Z,98041.89
2022-09-07T18:12:09.516Z,98042.59
2022-09-07T18:14:37.553Z,98042.79
2022-09-07T18:17:06.080Z,98045.34
2022-09-07T18:19:34.146Z,98048.65
2022-09-07T18:22:03.978Z,98049.75
2022-09-07T18:24:32.435Z,98047.92
2022-09-07T18:27:01.314Z,98049.11
2022-09-07T18:29:32.966Z,98049.27
2022-09-07T18:32:07.380Z,98054.55
2022-09-07T18:34:37.636Z,98056.05
2022-09-07T18:37:06.223Z,98055.18
2022-09-07T18:39:35.671Z,98056.04
2022-09-07T18:42:04.268Z,98058.98
2022-09-07T18:47:28.079Z,98060.34
2022-09-07T18:49:58.117Z,98055.02
2022-09-07T18:55:16.369Z,98054.30
2022-09-07T18:57:44.920Z,98055.20
2022-09-07T19:00:14.470Z,98056.15
2022-09-07T19:02:42.553Z,98056.93
2022-09-07T19:07:59.834Z,98054.69
2022-09-07T19:10:28.148Z,98052.39
2022-09-07T19:12:56.532Z,98046.36
2022-09-07T19:15:24.538Z,98047.66
2022-09-07T19:17:52.571Z,98048.12
2022-09-07T19:20:20.640Z,98048.26
2022-09-07T19:22:48.920Z,98049.27
2022-09-07T19:25:19.472Z,98047.95
2022-09-07T19:27:47.521Z,98048.10
2022-09-07T19:30:17.486Z,98046.75
2022-09-07T19:32:45.733Z,98050.05
2022-09-07T19:35:13.888Z,98051.66
2022-09-07T19:37:42.088Z,98051.80
2022-09-07T19:40:14.737Z,98047.62
2022-09-07T19:42:46.712Z,98047.76
2022-09-07T19:45:15.693Z,98045.95
2022-09-07T19:47:43.626Z,98042.50
2022-09-07T19:50:11.637Z,98043.45
2022-09-07T19:52:39.702Z,98041.17
2022-09-07T19:55:08.183Z,98046.13
2022-09-07T19:57:36.568Z,98046.77
2022-09-07T20:00:05.568Z,98044.69
2022-09-07T20:02:40.283Z,98043.48
2022-09-07T20:05:08.766Z,98047.31
2022-09-07T20:07:36.743Z,98052.15
2022-09-07T20:10:05.528Z,98046.30
2022-09-07T20:12:33.596Z,98046.77
2022-09-07T20:15:01.844Z,98047.55
2022-09-07T20:17:35.060Z,98043.23
2022-09-07T20:20:05.327Z,98037.78
2022-09-07T20:22:33.363Z,98039.39
2022-09-07T20:25:01.307Z,98039.13
2022-09-07T20:27:30.730Z,98042.77
2022-09-07T20:29:58.710Z,98042.82
2022-09-07T20:32:28.416Z,98044.16
2022-09-07T20:34:56.916Z,98048.92
2022-09-07T20:37:28.546Z,98052.27
2022-09-07T20:39:56.862Z,98052.41
2022-09-07T20:42:25.208Z,98050.67
2022-09-07T20:44:53.590Z,98048.73
2022-09-07T20:47:21.655Z,98045.50
2022-09-07T20:49:51.669Z,98044.64
2022-09-07T20:52:19.641Z,98046.60
2022-09-07T20:54:47.815Z,98045.67
2022-09-07T20:57:15.796Z,98046.19
2022-09-07T20:59:43.694Z,98047.23
2022-09-07T21:02:11.967Z,98051.23
2022-09-07T21:04:40.210Z,98052.27
2022-09-07T21:07:08.126Z,98049.91
2022-09-07T21:09:36.347Z,98054.05
2022-09-07T21:12:04.727Z,98051.36
2022-09-07T21:14:33.106Z,98050.75
2022-09-07T21:17:01.082Z,98049.19
2022-09-07T21:19:29.049Z,98046.10
2022-09-07T21:21:57.013Z,98046.75
2022-09-07T21:24:25.187Z,98044.45
2022-09-07T21:26:53.211Z,98048.47
2022-09-07T21:29:24.304Z,98049.55
2022-09-07T21:31:54.767Z,98048.52
2022-09-07T21:34:23.417Z,98052.30
2022-09-07T21:36:52.261Z,98049.33
2022-09-07T21:39:21.614Z,98045.21
2022-09-07T21:41:49.683Z,98043.52
2022-09-07T21:44:17.857Z,98048.75
2022-09-07T21:46:46.075Z,98048.64
2022-09-07T21:49:14.200Z,98048.89
2022-09-07T21:51:42.272Z,98048.83
2022-09-07T21:54:10.554Z,98050.41
2022-09-07T21:56:41.982Z,98050.07
2022-09-07T21:59:12.529Z,98048.85
2022-09-07T22:01:41.022Z,98048.10
2022-09-07T22:04:08.979Z,98048.90
2022-09-07T22:06:37.880Z,98045.13
2022-09-07T22:09:05.951Z,98047.45
2022-09-07T22:11:34.016Z,98050.84
2022-09-07T22:14:03.900Z,98053.24
2022-09-07T22:16:34.118Z,98057.17
2022-09-07T22:19:02.433Z,98058.70
2022-09-07T22:21:31.309Z,98056.28
2022-09-07T22:24:02.266Z,98052.55
2022-09-07T22:26:33.712Z,98045.70
2022-09-07T22:29:02.091Z,98039.08
2022-09-07T22:31:32.649Z,98042.39
2022-09-07T22:34:03.730Z,98040.59
2022-09-07T22:36:43.812Z,98037.34
2022-09-07T22:39:14.951Z,98032.83
2022-09-07T22:41:44.892Z,98031.01
2022-09-07T22:44:15.781Z,98025.52
2022-09-07T22:46:45.349Z,98022.91
2022-09-07T22:49:15.978Z,98023.88
2022-09-07T22:51:44.745Z,98017.14
2022-09-07T22:54:13.427Z,98011.90
2022-09-07T22:56:41.522Z,98010.44
2022-09-07T22:59:10.620Z,98010.04
2022-09-07T23:01:38.881Z,98008.89
2022-09-07T23:04:07.854Z,98010.27
2022-09-07T23:06:38.705Z,98012.19
2022-09-07T23:09:10.050Z,98012.92
2022-09-07T23:11:39.287Z,98012.78
2022-09-07T23:14:12.863Z,98009.70
2022-09-07T23:16:41.861Z,98007.02
2022-09-07T23:19:12.884Z,98003.38
2022-09-07T23:21:41.456Z,97999.27
2022-09-07T23:24:14.562Z,98003.39
2022-09-07T23:26:43.172Z,98002.61
2022-09-07T23:29:13.083Z,98000.52
2022-09-07T23:31:42.137Z,98000.09
2022-09-07T23:34:10.220Z,98001.02
2022-09-07T23:36:38.398Z,98004.06
2022-09-07T23:39:06.464Z,98008.11
2022-09-07T23:41:34.541Z,98008.11
2022-09-07T23:44:03.542Z,98008.58
2022-09-07T23:46:31.581Z,98008.84
2022-09-07T23:48:59.572Z,98012.31
2022-09-07T23:51:27.423Z,98009.92
2022-09-07T23:53:55.510Z,98005.40
2022-09-07T23:56:24.716Z,97999.73
2022-09-07T23:58:52.988Z,97995.23
